Rechercher aéroport 
image banner adimage banner adimage banner ad
image banner ad

KPSP - Palm Springs Intl

Situé à Palm Springs, United States

ICAO - PSP, IATA - PSP

Données fournies par Airmate  

Information générale

Coordonnées: N33°49'47" W116°30'24"
Élévation : 476 feet MSL.
Variation magnétique : 13° East
Évalué:
Voir évaluations:
[VIEW]
Voir autres Aéroports à California

Données opérationnelles

Special qualification required
Heure actuelle UTC:
Heure actuelle locale:
Météo
METAR: KPSP 251553Z 26003KT 10SM CLR 32/15 A2993 RMK AO2 SLP131 T03220150 $
TAF: KPSP 251141Z 2512/2612 VRB06KT P6SM BKN120 FM251600 10012KT P6SM BKN120 FM252100 11012KT P6SM VCTS BKN070CB BKN100 FM260200 VRB06KT P6SM VCTS BKN060CB BKN100
Voir NOTAMs / SUP AIP / TFR affectant cet aéroport [VIEW]
Fréquences de communication: [VIEW]

Pistes:

Identifiant RWYQFULongueur (ft)Largeur (ft)SurfaceLDA (ft)
13R143°10000150ASPH6857
31L323°10000150ASPH8500
13L143°495275ASPH4952
31R323°495275ASPH4952

Coordonnées de l'aéroport

Adresse: Palm Springs United States

Autres services d'aviation

Écoles de pilotage

Palm Springs Aviators - Flying Club

Palm Springs Aviators - Flying Club

Eagle Flight Academy

Eagle Flight Academy

Vue satellite de KPSP